sensor_id;sensor_type;location;lat;lon;timestamp;pressure;altitude;pressure_sealevel;temperature;humidity
37856;BME280;23694;43.274;26.924;2022-07-29T00:00:54;98973.47;;;23.32;67.84
37856;BME280;23694;43.274;26.924;2022-07-29T00:03:20;98975.75;;;23.35;67.48
37856;BME280;23694;43.274;26.924;2022-07-29T00:05:46;98974.22;;;23.41;66.93
37856;BME280;23694;43.274;26.924;2022-07-29T00:08:13;98973.47;;;23.32;66.94
37856;BME280;23694;43.274;26.924;2022-07-29T00:10:39;98976.22;;;23.24;66.76
37856;BME280;23694;43.274;26.924;2022-07-29T00:13:05;98974.84;;;23.14;66.79
37856;BME280;23694;43.274;26.924;2022-07-29T00:15:31;98978.91;;;23.09;66.15
37856;BME280;23694;43.274;26.924;2022-07-29T00:17:57;98979.47;;;23.05;66.47
37856;BME280;23694;43.274;26.924;2022-07-29T00:20:23;98970.53;;;22.98;67.12
37856;BME280;23694;43.274;26.924;2022-07-29T00:22:49;98975.84;;;22.98;67.09
37856;BME280;23694;43.274;26.924;2022-07-29T00:25:16;98970.69;;;22.96;67.13
37856;BME280;23694;43.274;26.924;2022-07-29T00:27:42;98979.09;;;22.93;67.25
37856;BME280;23694;43.274;26.924;2022-07-29T00:30:08;98974.94;;;22.91;67.24
37856;BME280;23694;43.274;26.924;2022-07-29T00:32:34;98970.97;;;22.87;67.57
37856;BME280;23694;43.274;26.924;2022-07-29T00:35:00;98978.53;;;22.83;67.79
37856;BME280;23694;43.274;26.924;2022-07-29T00:37:45;98978.88;;;22.80;68.07
37856;BME280;23694;43.274;26.924;2022-07-29T00:40:11;98975.34;;;22.80;68.39
37856;BME280;23694;43.274;26.924;2022-07-29T00:42:45;98973.03;;;22.76;68.51
37856;BME280;23694;43.274;26.924;2022-07-29T00:45:12;98977.56;;;22.76;68.15
37856;BME280;23694;43.274;26.924;2022-07-29T00:47:38;98984.06;;;22.73;68.21
37856;BME280;23694;43.274;26.924;2022-07-29T00:50:06;98977.72;;;22.74;68.00
37856;BME280;23694;43.274;26.924;2022-07-29T00:52:33;98975.75;;;22.68;67.99
37856;BME280;23694;43.274;26.924;2022-07-29T00:55:03;98969.06;;;22.72;68.28
37856;BME280;23694;43.274;26.924;2022-07-29T00:57:29;98967.47;;;22.63;68.75
37856;BME280;23694;43.274;26.924;2022-07-29T00:59:55;98965.63;;;22.64;68.87
37856;BME280;23694;43.274;26.924;2022-07-29T01:02:21;98959.47;;;22.63;68.91
37856;BME280;23694;43.274;26.924;2022-07-29T01:04:48;98958.44;;;22.64;69.07
37856;BME280;23694;43.274;26.924;2022-07-29T01:07:15;98959.94;;;22.67;69.03
37856;BME280;23694;43.274;26.924;2022-07-29T01:09:42;98962.31;;;22.62;69.20
37856;BME280;23694;43.274;26.924;2022-07-29T01:12:10;98960.94;;;22.66;69.59
37856;BME280;23694;43.274;26.924;2022-07-29T01:14:37;98961.38;;;22.55;69.96
37856;BME280;23694;43.274;26.924;2022-07-29T01:17:26;98954.28;;;22.47;70.27
37856;BME280;23694;43.274;26.924;2022-07-29T01:28:59;98958.31;;;22.43;70.40
37856;BME280;23694;43.274;26.924;2022-07-29T01:31:58;98957.66;;;22.41;70.31
37856;BME280;23694;43.274;26.924;2022-07-29T01:34:34;98955.19;;;22.39;70.15
37856;BME280;23694;43.274;26.924;2022-07-29T01:37:22;98953.81;;;22.43;69.99
37856;BME280;23694;43.274;26.924;2022-07-29T01:39:54;98948.47;;;22.43;70.04
37856;BME280;23694;43.274;26.924;2022-07-29T01:42:43;98955.34;;;22.38;70.30
37856;BME280;23694;43.274;26.924;2022-07-29T01:45:15;98945.69;;;22.37;70.29
37856;BME280;23694;43.274;26.924;2022-07-29T01:47:59;98946.94;;;22.26;70.35
37856;BME280;23694;43.274;26.924;2022-07-29T01:50:50;98941.63;;;22.26;70.73
37856;BME280;23694;43.274;26.924;2022-07-29T01:53:31;98938.94;;;22.26;70.35
37856;BME280;23694;43.274;26.924;2022-07-29T01:56:00;98939.31;;;22.23;70.49
37856;BME280;23694;43.274;26.924;2022-07-29T01:58:28;98938.00;;;22.19;70.79
37856;BME280;23694;43.274;26.924;2022-07-29T02:00:57;98948.19;;;22.16;70.73
37856;BME280;23694;43.274;26.924;2022-07-29T02:03:25;98952.53;;;22.17;70.67
37856;BME280;23694;43.274;26.924;2022-07-29T02:05:52;98947.88;;;22.10;70.75
37856;BME280;23694;43.274;26.924;2022-07-29T02:08:19;98956.56;;;22.12;70.89
37856;BME280;23694;43.274;26.924;2022-07-29T02:10:48;98957.72;;;22.10;70.62
37856;BME280;23694;43.274;26.924;2022-07-29T02:13:15;98952.41;;;22.02;71.12
37856;BME280;23694;43.274;26.924;2022-07-29T02:15:44;98949.16;;;21.92;71.50
37856;BME280;23694;43.274;26.924;2022-07-29T02:18:17;98944.75;;;21.99;71.42
37856;BME280;23694;43.274;26.924;2022-07-29T02:20:50;98954.25;;;22.01;71.57
37856;BME280;23694;43.274;26.924;2022-07-29T02:23:22;98960.09;;;22.05;71.34
37856;BME280;23694;43.274;26.924;2022-07-29T02:25:54;98951.06;;;22.06;71.46
37856;BME280;23694;43.274;26.924;2022-07-29T02:28:26;98948.44;;;21.98;72.10
37856;BME280;23694;43.274;26.924;2022-07-29T02:30:55;98957.44;;;21.97;71.93
37856;BME280;23694;43.274;26.924;2022-07-29T02:33:23;98958.97;;;21.91;72.29
37856;BME280;23694;43.274;26.924;2022-07-29T02:35:51;98959.88;;;21.83;72.80
37856;BME280;23694;43.274;26.924;2022-07-29T02:38:18;98959.22;;;21.81;73.15
37856;BME280;23694;43.274;26.924;2022-07-29T02:41:09;98958.91;;;21.76;73.17
37856;BME280;23694;43.274;26.924;2022-07-29T02:43:38;98960.56;;;21.77;73.62
37856;BME280;23694;43.274;26.924;2022-07-29T02:46:08;98967.91;;;21.75;73.90
37856;BME280;23694;43.274;26.924;2022-07-29T02:48:40;98961.75;;;21.75;74.92
37856;BME280;23694;43.274;26.924;2022-07-29T02:51:23;98959.22;;;21.81;74.82
37856;BME280;23694;43.274;26.924;2022-07-29T02:53:53;98967.69;;;21.85;74.74
37856;BME280;23694;43.274;26.924;2022-07-29T02:56:25;98960.16;;;21.89;74.22
37856;BME280;23694;43.274;26.924;2022-07-29T02:58:57;98958.50;;;21.88;74.70
37856;BME280;23694;43.274;26.924;2022-07-29T03:01:25;98962.59;;;21.98;74.11
37856;BME280;23694;43.274;26.924;2022-07-29T03:03:55;98975.44;;;22.03;74.22
37856;BME280;23694;43.274;26.924;2022-07-29T03:06:23;98972.78;;;22.03;74.40
37856;BME280;23694;43.274;26.924;2022-07-29T03:08:51;98967.09;;;22.06;74.52
37856;BME280;23694;43.274;26.924;2022-07-29T03:11:18;98972.56;;;22.12;74.14
37856;BME280;23694;43.274;26.924;2022-07-29T03:13:44;98971.56;;;22.13;73.94
37856;BME280;23694;43.274;26.924;2022-07-29T03:16:12;98970.31;;;22.24;73.67
37856;BME280;23694;43.274;26.924;2022-07-29T03:18:39;98960.34;;;22.18;73.88
37856;BME280;23694;43.274;26.924;2022-07-29T03:21:05;98969.88;;;22.35;73.67
37856;BME280;23694;43.274;26.924;2022-07-29T03:23:32;98974.53;;;22.56;73.00
37856;BME280;23694;43.274;26.924;2022-07-29T03:25:58;98973.69;;;22.78;71.86
37856;BME280;23694;43.274;26.924;2022-07-29T03:28:24;98972.28;;;23.05;71.05
37856;BME280;23694;43.274;26.924;2022-07-29T03:30:53;98982.50;;;23.46;69.58
37856;BME280;23694;43.274;26.924;2022-07-29T03:33:19;98974.53;;;23.82;67.60
37856;BME280;23694;43.274;26.924;2022-07-29T03:35:45;98976.75;;;24.15;66.37
37856;BME280;23694;43.274;26.924;2022-07-29T03:38:12;98972.44;;;24.35;65.07
37856;BME280;23694;43.274;26.924;2022-07-29T03:40:48;98969.31;;;24.53;64.23
37856;BME280;23694;43.274;26.924;2022-07-29T03:43:16;98980.84;;;24.75;63.23
37856;BME280;23694;43.274;26.924;2022-07-29T03:45:47;98985.38;;;25.02;62.51
37856;BME280;23694;43.274;26.924;2022-07-29T03:48:16;98985.09;;;25.25;61.36
37856;BME280;23694;43.274;26.924;2022-07-29T03:50:44;98986.75;;;25.60;59.63
37856;BME280;23694;43.274;26.924;2022-07-29T03:53:10;98978.63;;;25.88;58.63
37856;BME280;23694;43.274;26.924;2022-07-29T03:55:45;98974.38;;;26.27;56.99
37856;BME280;23694;43.274;26.924;2022-07-29T03:58:13;98980.84;;;26.59;56.71
37856;BME280;23694;43.274;26.924;2022-07-29T04:00:41;98989.94;;;27.04;55.07
37856;BME280;23694;43.274;26.924;2022-07-29T04:03:08;98987.41;;;27.42;53.65
37856;BME280;23694;43.274;26.924;2022-07-29T04:05:35;98990.41;;;27.72;52.45
37856;BME280;23694;43.274;26.924;2022-07-29T04:08:01;98989.66;;;28.03;51.40
37856;BME280;23694;43.274;26.924;2022-07-29T04:10:27;98987.66;;;28.30;50.64
37856;BME280;23694;43.274;26.924;2022-07-29T04:12:53;98987.81;;;28.67;49.55
37856;BME280;23694;43.274;26.924;2022-07-29T04:15:19;98990.91;;;29.14;48.15
37856;BME280;23694;43.274;26.924;2022-07-29T04:17:45;98993.06;;;29.66;46.33
37856;BME280;23694;43.274;26.924;2022-07-29T04:20:12;98991.75;;;30.06;45.30
37856;BME280;23694;43.274;26.924;2022-07-29T04:22:39;98999.03;;;30.47;43.80
37856;BME280;23694;43.274;26.924;2022-07-29T04:25:06;98996.91;;;30.67;42.90
37856;BME280;23694;43.274;26.924;2022-07-29T04:27:32;98997.03;;;30.42;39.50
37856;BME280;23694;43.274;26.924;2022-07-29T04:29:58;98987.16;;;30.36;40.32
37856;BME280;23694;43.274;26.924;2022-07-29T04:32:25;98998.44;;;29.85;38.35
37856;BME280;23694;43.274;26.924;2022-07-29T04:34:51;99004.50;;;30.17;37.63
37856;BME280;23694;43.274;26.924;2022-07-29T04:37:17;99000.00;;;30.11;38.07
37856;BME280;23694;43.274;26.924;2022-07-29T04:39:43;99003.50;;;30.83;37.21
37856;BME280;23694;43.274;26.924;2022-07-29T04:42:09;99001.25;;;30.91;37.51
37856;BME280;23694;43.274;26.924;2022-07-29T04:44:35;99009.66;;;31.37;36.76
37856;BME280;23694;43.274;26.924;2022-07-29T04:47:02;99011.19;;;31.84;35.70
37856;BME280;23694;43.274;26.924;2022-07-29T04:49:28;99008.72;;;31.95;34.80
37856;BME280;23694;43.274;26.924;2022-07-29T04:51:54;99009.59;;;31.60;34.20
37856;BME280;23694;43.274;26.924;2022-07-29T04:54:20;99010.91;;;31.46;34.51
37856;BME280;23694;43.274;26.924;2022-07-29T04:56:46;99023.25;;;31.53;34.67
37856;BME280;23694;43.274;26.924;2022-07-29T04:59:12;99019.47;;;31.78;33.63
37856;BME280;23694;43.274;26.924;2022-07-29T05:01:38;99019.94;;;31.75;33.87
37856;BME280;23694;43.274;26.924;2022-07-29T05:04:04;99019.69;;;31.65;33.60
37856;BME280;23694;43.274;26.924;2022-07-29T05:06:30;99012.31;;;31.72;33.57
37856;BME280;23694;43.274;26.924;2022-07-29T05:08:56;99030.00;;;32.03;33.12
37856;BME280;23694;43.274;26.924;2022-07-29T05:11:22;99028.59;;;32.00;32.39
37856;BME280;23694;43.274;26.924;2022-07-29T05:13:48;99033.34;;;31.81;33.20
37856;BME280;23694;43.274;26.924;2022-07-29T05:16:14;99029.22;;;32.19;32.46
37856;BME280;23694;43.274;26.924;2022-07-29T05:18:41;99041.47;;;32.50;32.27
37856;BME280;23694;43.274;26.924;2022-07-29T05:21:07;99042.56;;;32.66;32.41
37856;BME280;23694;43.274;26.924;2022-07-29T05:23:33;99035.91;;;32.57;32.45
37856;BME280;23694;43.274;26.924;2022-07-29T05:25:59;99037.91;;;33.28;31.32
37856;BME280;23694;43.274;26.924;2022-07-29T05:28:26;99041.16;;;34.08;30.68
37856;BME280;23694;43.274;26.924;2022-07-29T05:30:52;99040.56;;;34.49;29.43
37856;BME280;23694;43.274;26.924;2022-07-29T05:33:18;99039.19;;;34.03;30.08
37856;BME280;23694;43.274;26.924;2022-07-29T05:35:44;99036.63;;;32.24;31.58
37856;BME280;23694;43.274;26.924;2022-07-29T05:38:10;99033.47;;;30.70;34.14
37856;BME280;23694;43.274;26.924;2022-07-29T05:40:36;99047.03;;;30.21;34.71
37856;BME280;23694;43.274;26.924;2022-07-29T05:43:02;99045.59;;;30.19;35.55
37856;BME280;23694;43.274;26.924;2022-07-29T05:45:28;99052.28;;;30.16;36.18
37856;BME280;23694;43.274;26.924;2022-07-29T05:47:54;99043.53;;;30.03;36.40
37856;BME280;23694;43.274;26.924;2022-07-29T05:50:20;99047.34;;;29.77;37.74
37856;BME280;23694;43.274;26.924;2022-07-29T05:52:46;99047.84;;;29.85;37.67
37856;BME280;23694;43.274;26.924;2022-07-29T05:55:12;99039.84;;;29.97;36.98
37856;BME280;23694;43.274;26.924;2022-07-29T05:57:38;99038.56;;;30.18;37.24
37856;BME280;23694;43.274;26.924;2022-07-29T06:00:05;99041.06;;;30.31;36.88
37856;BME280;23694;43.274;26.924;2022-07-29T06:02:31;99041.72;;;30.15;37.08
37856;BME280;23694;43.274;26.924;2022-07-29T06:04:57;99038.41;;;29.76;36.85
37856;BME280;23694;43.274;26.924;2022-07-29T06:07:23;99039.50;;;28.82;38.49
37856;BME280;23694;43.274;26.924;2022-07-29T06:09:49;99043.34;;;28.68;38.11
37856;BME280;23694;43.274;26.924;2022-07-29T06:12:15;99046.22;;;28.41;39.33
37856;BME280;23694;43.274;26.924;2022-07-29T06:14:42;99037.50;;;29.02;38.95
37856;BME280;23694;43.274;26.924;2022-07-29T06:17:08;99037.97;;;29.18;38.43
37856;BME280;23694;43.274;26.924;2022-07-29T06:19:34;99041.94;;;28.90;37.99
37856;BME280;23694;43.274;26.924;2022-07-29T06:22:02;99041.28;;;28.95;37.80
37856;BME280;23694;43.274;26.924;2022-07-29T06:24:28;99042.41;;;28.81;38.54
37856;BME280;23694;43.274;26.924;2022-07-29T06:26:54;99034.38;;;28.74;39.23
37856;BME280;23694;43.274;26.924;2022-07-29T06:29:20;99037.69;;;28.45;39.66
37856;BME280;23694;43.274;26.924;2022-07-29T06:31:46;99040.00;;;28.41;40.24
37856;BME280;23694;43.274;26.924;2022-07-29T06:34:12;99038.28;;;28.85;38.64
37856;BME280;23694;43.274;26.924;2022-07-29T06:36:38;99035.97;;;28.88;38.65
37856;BME280;23694;43.274;26.924;2022-07-29T06:39:06;99041.59;;;29.30;37.03
37856;BME280;23694;43.274;26.924;2022-07-29T06:41:33;99044.91;;;29.32;37.15
37856;BME280;23694;43.274;26.924;2022-07-29T06:43:59;99045.72;;;28.83;38.04
37856;BME280;23694;43.274;26.924;2022-07-29T06:46:26;99043.31;;;28.99;37.24
37856;BME280;23694;43.274;26.924;2022-07-29T06:48:53;99040.28;;;28.64;37.84
37856;BME280;23694;43.274;26.924;2022-07-29T06:51:19;99041.72;;;28.60;38.58
37856;BME280;23694;43.274;26.924;2022-07-29T06:53:46;99042.19;;;28.82;37.47
37856;BME280;23694;43.274;26.924;2022-07-29T06:56:12;99040.03;;;28.97;36.80
37856;BME280;23694;43.274;26.924;2022-07-29T06:58:39;99039.78;;;28.74;37.25
37856;BME280;23694;43.274;26.924;2022-07-29T07:01:06;99032.91;;;28.78;37.59
37856;BME280;23694;43.274;26.924;2022-07-29T07:03:32;99039.75;;;29.06;37.23
37856;BME280;23694;43.274;26.924;2022-07-29T07:05:59;99037.13;;;29.42;36.19
37856;BME280;23694;43.274;26.924;2022-07-29T07:08:25;99039.56;;;28.76;37.14
37856;BME280;23694;43.274;26.924;2022-07-29T07:10:52;99037.94;;;28.99;37.67
37856;BME280;23694;43.274;26.924;2022-07-29T07:13:19;99034.06;;;29.14;36.54
37856;BME280;23694;43.274;26.924;2022-07-29T07:15:46;99037.53;;;29.64;35.50
37856;BME280;23694;43.274;26.924;2022-07-29T07:18:15;99034.97;;;30.06;34.91
37856;BME280;23694;43.274;26.924;2022-07-29T07:20:42;99035.59;;;30.49;34.12
37856;BME280;23694;43.274;26.924;2022-07-29T07:23:08;99030.63;;;30.65;33.84
37856;BME280;23694;43.274;26.924;2022-07-29T07:25:34;99041.44;;;30.35;34.41
37856;BME280;23694;43.274;26.924;2022-07-29T07:28:00;99036.34;;;30.26;34.14
37856;BME280;23694;43.274;26.924;2022-07-29T07:30:27;99034.75;;;30.07;34.48
37856;BME280;23694;43.274;26.924;2022-07-29T07:32:54;99037.28;;;29.84;34.93
37856;BME280;23694;43.274;26.924;2022-07-29T07:35:21;99034.50;;;29.90;34.41
37856;BME280;23694;43.274;26.924;2022-07-29T07:37:47;99037.28;;;29.84;35.35
37856;BME280;23694;43.274;26.924;2022-07-29T07:40:13;99042.53;;;29.79;35.37
37856;BME280;23694;43.274;26.924;2022-07-29T07:42:40;99039.47;;;29.75;35.41
37856;BME280;23694;43.274;26.924;2022-07-29T07:45:07;99041.31;;;30.41;34.44
37856;BME280;23694;43.274;26.924;2022-07-29T07:47:36;99033.09;;;30.66;34.40
37856;BME280;23694;43.274;26.924;2022-07-29T07:50:04;99039.13;;;30.91;32.65
37856;BME280;23694;43.274;26.924;2022-07-29T07:52:30;99035.84;;;31.01;33.27
37856;BME280;23694;43.274;26.924;2022-07-29T07:54:56;99031.13;;;31.08;32.95
37856;BME280;23694;43.274;26.924;2022-07-29T07:57:22;99038.53;;;31.01;32.90
37856;BME280;23694;43.274;26.924;2022-07-29T07:59:49;99029.59;;;30.89;32.96
37856;BME280;23694;43.274;26.924;2022-07-29T08:02:15;99026.19;;;30.94;32.77
37856;BME280;23694;43.274;26.924;2022-07-29T08:04:41;99024.84;;;31.26;32.15
37856;BME280;23694;43.274;26.924;2022-07-29T08:07:08;99030.53;;;30.83;33.19
37856;BME280;23694;43.274;26.924;2022-07-29T08:09:35;99022.13;;;31.26;32.04
37856;BME280;23694;43.274;26.924;2022-07-29T08:12:01;99016.00;;;31.19;32.42
37856;BME280;23694;43.274;26.924;2022-07-29T08:14:30;99018.09;;;31.17;32.64
37856;BME280;23694;43.274;26.924;2022-07-29T08:16:56;99018.97;;;31.69;31.76
37856;BME280;23694;43.274;26.924;2022-07-29T08:19:22;99021.38;;;30.96;31.87
37856;BME280;23694;43.274;26.924;2022-07-29T08:21:48;99022.53;;;31.11;32.14
37856;BME280;23694;43.274;26.924;2022-07-29T08:24:14;99020.19;;;30.91;31.38
37856;BME280;23694;43.274;26.924;2022-07-29T08:26:59;99027.50;;;30.91;30.78
37856;BME280;23694;43.274;26.924;2022-07-29T08:29:25;99027.22;;;30.39;31.02
37856;BME280;23694;43.274;26.924;2022-07-29T08:31:51;99025.38;;;30.10;31.47
37856;BME280;23694;43.274;26.924;2022-07-29T08:34:17;99016.06;;;30.36;31.69
37856;BME280;23694;43.274;26.924;2022-07-29T08:36:43;99014.91;;;30.97;30.83
37856;BME280;23694;43.274;26.924;2022-07-29T08:39:09;99016.66;;;31.03;30.23
37856;BME280;23694;43.274;26.924;2022-07-29T08:41:36;99016.06;;;30.66;30.46
37856;BME280;23694;43.274;26.924;2022-07-29T08:44:02;99024.59;;;30.21;31.66
37856;BME280;23694;43.274;26.924;2022-07-29T08:46:29;99015.97;;;30.12;31.86
37856;BME280;23694;43.274;26.924;2022-07-29T08:48:55;99016.72;;;30.19;32.06
37856;BME280;23694;43.274;26.924;2022-07-29T08:51:22;99009.59;;;29.88;32.48
37856;BME280;23694;43.274;26.924;2022-07-29T08:53:50;99006.81;;;30.13;32.42
37856;BME280;23694;43.274;26.924;2022-07-29T08:56:17;99000.31;;;30.44;32.02
37856;BME280;23694;43.274;26.924;2022-07-29T08:58:46;98995.16;;;30.73;31.28
37856;BME280;23694;43.274;26.924;2022-07-29T09:01:17;99004.44;;;31.00;31.02
37856;BME280;23694;43.274;26.924;2022-07-29T09:03:46;99002.31;;;31.49;30.36
37856;BME280;23694;43.274;26.924;2022-07-29T09:06:14;98999.31;;;31.85;29.41
37856;BME280;23694;43.274;26.924;2022-07-29T09:08:43;98998.56;;;31.38;30.35
37856;BME280;23694;43.274;26.924;2022-07-29T09:11:13;98997.06;;;31.31;30.55
37856;BME280;23694;43.274;26.924;2022-07-29T09:13:40;98996.59;;;31.34;30.57
37856;BME280;23694;43.274;26.924;2022-07-29T09:16:06;98998.22;;;31.46;30.23
37856;BME280;23694;43.274;26.924;2022-07-29T09:18:39;98989.50;;;31.96;30.01
37856;BME280;23694;43.274;26.924;2022-07-29T09:21:07;98992.91;;;32.48;29.18
37856;BME280;23694;43.274;26.924;2022-07-29T09:26:32;98982.34;;;32.97;27.95
37856;BME280;23694;43.274;26.924;2022-07-29T09:28:59;98993.97;;;31.50;30.20
37856;BME280;23694;43.274;26.924;2022-07-29T09:31:34;98982.47;;;31.32;30.68
37856;BME280;23694;43.274;26.924;2022-07-29T09:34:01;98987.03;;;30.84;30.91
37856;BME280;23694;43.274;26.924;2022-07-29T09:36:27;98991.78;;;31.24;31.52
37856;BME280;23694;43.274;26.924;2022-07-29T09:39:00;98980.72;;;31.26;30.92
37856;BME280;23694;43.274;26.924;2022-07-29T09:41:43;98980.56;;;30.97;31.37
37856;BME280;23694;43.274;26.924;2022-07-29T09:44:09;98977.28;;;30.83;31.57
37856;BME280;23694;43.274;26.924;2022-07-29T09:46:36;98976.84;;;31.21;31.06
37856;BME280;23694;43.274;26.924;2022-07-29T09:49:10;98977.31;;;31.30;31.11
37856;BME280;23694;43.274;26.924;2022-07-29T09:51:37;98969.88;;;31.37;30.99
37856;BME280;23694;43.274;26.924;2022-07-29T09:54:22;98979.28;;;31.35;31.22
37856;BME280;23694;43.274;26.924;2022-07-29T09:56:49;98978.56;;;30.92;31.58
37856;BME280;23694;43.274;26.924;2022-07-29T09:59:15;98966.34;;;30.90;31.97
37856;BME280;23694;43.274;26.924;2022-07-29T10:01:41;98972.91;;;31.41;31.04
37856;BME280;23694;43.274;26.924;2022-07-29T10:04:07;98965.69;;;31.58;30.92
37856;BME280;23694;43.274;26.924;2022-07-29T10:06:34;98965.25;;;32.18;29.89
37856;BME280;23694;43.274;26.924;2022-07-29T10:09:10;98970.69;;;32.63;29.31
37856;BME280;23694;43.274;26.924;2022-07-29T10:11:36;98971.16;;;32.77;28.84
37856;BME280;23694;43.274;26.924;2022-07-29T10:14:03;98980.91;;;31.99;30.46
37856;BME280;23694;43.274;26.924;2022-07-29T10:16:30;98963.28;;;31.85;30.24
37856;BME280;23694;43.274;26.924;2022-07-29T10:18:59;98966.78;;;31.97;30.50
37856;BME280;23694;43.274;26.924;2022-07-29T10:21:27;98953.31;;;32.02;30.73
37856;BME280;23694;43.274;26.924;2022-07-29T10:23:53;98956.69;;;32.38;29.63
37856;BME280;23694;43.274;26.924;2022-07-29T10:26:20;98950.56;;;32.14;29.63
37856;BME280;23694;43.274;26.924;2022-07-29T10:28:46;98955.63;;;32.10;29.46
37856;BME280;23694;43.274;26.924;2022-07-29T10:31:28;98950.75;;;32.41;29.17
37856;BME280;23694;43.274;26.924;2022-07-29T10:36:52;98944.47;;;32.86;28.71
37856;BME280;23694;43.274;26.924;2022-07-29T10:42:23;98938.13;;;32.46;28.84
37856;BME280;23694;43.274;26.924;2022-07-29T10:44:51;98941.41;;;32.03;29.56
37856;BME280;23694;43.274;26.924;2022-07-29T10:47:26;98935.28;;;32.08;29.42
37856;BME280;23694;43.274;26.924;2022-07-29T10:50:00;98934.78;;;32.11;29.04
37856;BME280;23694;43.274;26.924;2022-07-29T10:55:36;98933.00;;;33.00;28.23
37856;BME280;23694;43.274;26.924;2022-07-29T10:58:19;98933.13;;;33.49;27.52
37856;BME280;23694;43.274;26.924;2022-07-29T11:00:50;98935.25;;;33.25;27.37
37856;BME280;23694;43.274;26.924;2022-07-29T11:03:42;98927.69;;;33.49;27.51
37856;BME280;23694;43.274;26.924;2022-07-29T11:06:09;98901.84;;;33.68;27.13
37856;BME280;23694;43.274;26.924;2022-07-29T11:08:35;98923.53;;;33.20;27.57
37856;BME280;23694;43.274;26.924;2022-07-29T11:13:50;98925.72;;;33.23;27.34
37856;BME280;23694;43.274;26.924;2022-07-29T11:16:18;98930.28;;;33.17;26.84
37856;BME280;23694;43.274;26.924;2022-07-29T11:21:43;98912.47;;;34.24;25.89
37856;BME280;23694;43.274;26.924;2022-07-29T11:24:21;98904.41;;;34.66;25.31
37856;BME280;23694;43.274;26.924;2022-07-29T11:27:20;98909.66;;;34.14;25.74
37856;BME280;23694;43.274;26.924;2022-07-29T11:29:55;98903.72;;;34.17;25.28
37856;BME280;23694;43.274;26.924;2022-07-29T11:32:24;98903.22;;;34.52;25.69
37856;BME280;23694;43.274;26.924;2022-07-29T11:37:38;98905.91;;;33.22;26.26
37856;BME280;23694;43.274;26.924;2022-07-29T11:47:39;98891.69;;;33.15;26.64
37856;BME280;23694;43.274;26.924;2022-07-29T11:50:08;98883.53;;;32.93;26.77
37856;BME280;23694;43.274;26.924;2022-07-29T11:52:39;98868.09;;;32.77;27.03
37856;BME280;23694;43.274;26.924;2022-07-29T11:55:16;98881.00;;;33.08;26.52
37856;BME280;23694;43.274;26.924;2022-07-29T12:00:32;98869.88;;;33.76;26.21
37856;BME280;23694;43.274;26.924;2022-07-29T12:03:03;98869.25;;;34.22;25.11
37856;BME280;23694;43.274;26.924;2022-07-29T12:05:36;98858.19;;;33.75;25.29
37856;BME280;23694;43.274;26.924;2022-07-29T12:08:13;98864.59;;;33.64;25.70
37856;BME280;23694;43.274;26.924;2022-07-29T12:10:42;98854.53;;;33.37;26.27
37856;BME280;23694;43.274;26.924;2022-07-29T12:13:09;98859.56;;;33.29;26.32
37856;BME280;23694;43.274;26.924;2022-07-29T12:15:36;98856.28;;;33.49;26.31
37856;BME280;23694;43.274;26.924;2022-07-29T12:18:12;98848.19;;;33.81;26.36
37856;BME280;23694;43.274;26.924;2022-07-29T12:20:39;98858.94;;;33.44;26.48
37856;BME280;23694;43.274;26.924;2022-07-29T12:23:07;98854.97;;;33.51;26.50
37856;BME280;23694;43.274;26.924;2022-07-29T12:25:41;98852.25;;;33.51;26.58
37856;BME280;23694;43.274;26.924;2022-07-29T12:28:12;98856.75;;;33.40;26.75
37856;BME280;23694;43.274;26.924;2022-07-29T12:30:42;98849.97;;;33.21;27.01
37856;BME280;23694;43.274;26.924;2022-07-29T12:33:22;98841.94;;;32.88;27.26
37856;BME280;23694;43.274;26.924;2022-07-29T12:35:50;98840.50;;;32.80;27.08
37856;BME280;23694;43.274;26.924;2022-07-29T12:38:17;98833.81;;;33.09;27.21
37856;BME280;23694;43.274;26.924;2022-07-29T12:40:45;98839.94;;;33.00;27.07
37856;BME280;23694;43.274;26.924;2022-07-29T12:43:16;98830.78;;;33.50;26.33
37856;BME280;23694;43.274;26.924;2022-07-29T12:45:55;98822.72;;;33.60;26.19
37856;BME280;23694;43.274;26.924;2022-07-29T12:48:39;98823.66;;;33.44;25.83
37856;BME280;23694;43.274;26.924;2022-07-29T12:51:08;98822.50;;;33.66;26.26
37856;BME280;23694;43.274;26.924;2022-07-29T12:53:35;98829.34;;;33.96;25.37
37856;BME280;23694;43.274;26.924;2022-07-29T12:56:03;98815.97;;;33.89;25.57
37856;BME280;23694;43.274;26.924;2022-07-29T12:58:35;98810.94;;;33.49;26.11
37856;BME280;23694;43.274;26.924;2022-07-29T13:01:07;98815.22;;;33.94;25.71
37856;BME280;23694;43.274;26.924;2022-07-29T13:03:44;98815.09;;;34.16;24.96
37856;BME280;23694;43.274;26.924;2022-07-29T13:06:44;98812.38;;;34.16;24.90
37856;BME280;23694;43.274;26.924;2022-07-29T13:09:15;98810.34;;;34.33;24.25
37856;BME280;23694;43.274;26.924;2022-07-29T13:11:52;98804.72;;;34.45;24.59
37856;BME280;23694;43.274;26.924;2022-07-29T13:14:34;98809.25;;;33.97;25.00
37856;BME280;23694;43.274;26.924;2022-07-29T13:17:10;98804.03;;;33.90;25.29
37856;BME280;23694;43.274;26.924;2022-07-29T13:19:47;98802.69;;;33.93;25.18
37856;BME280;23694;43.274;26.924;2022-07-29T13:22:16;98805.91;;;33.63;25.51
37856;BME280;23694;43.274;26.924;2022-07-29T13:24:52;98797.97;;;33.56;25.95
37856;BME280;23694;43.274;26.924;2022-07-29T13:27:21;98793.41;;;33.62;25.33
37856;BME280;23694;43.274;26.924;2022-07-29T13:29:48;98799.25;;;33.49;25.72
37856;BME280;23694;43.274;26.924;2022-07-29T13:32:17;98783.22;;;33.47;25.59
37856;BME280;23694;43.274;26.924;2022-07-29T13:34:43;98786.03;;;33.57;25.26
37856;BME280;23694;43.274;26.924;2022-07-29T13:37:09;98793.50;;;33.72;25.20
37856;BME280;23694;43.274;26.924;2022-07-29T13:39:35;98794.66;;;33.49;25.11